Time;durP1;ratioP1;P1;durP2;ratioP2;P2;SDS_P1;SDS_P2;PMS_P1;PMS_P2;Temp;Humidity;BMP_temperature;BMP_pressure;BME280_temperature;BME280_humidity;BME280_pressure;Samples;Min_cycle;Max_cycle;Signal;HPM_P1;HPM_P2
2022/09/13 00:01:19;;;;;;;8.52;5.60;;;;;;;-140.66;100.00;55571.53;5041147;28;20064;-72
2022/09/13 00:04:04;;;;;;;6.38;5.07;;;;;;;-140.66;100.00;55571.53;5040581;28;20028;-72
2022/09/13 00:06:50;;;;;;;7.45;4.80;;;;;;;-140.66;100.00;55571.53;5054810;28;20029;-71
2022/09/13 00:09:36;;;;;;;5.15;4.50;;;;;;;-140.66;100.00;55571.53;5054553;28;20111;-71
2022/09/13 00:12:22;;;;;;;6.47;4.57;;;;;;;-140.66;100.00;55571.53;5040477;28;20040;-72
2022/09/13 00:15:08;;;;;;;5.85;4.82;;;;;;;-140.66;100.00;55571.53;5040736;28;20032;-72
2022/09/13 00:17:54;;;;;;;5.88;4.78;;;;;;;-140.66;100.00;55571.53;5055475;28;20029;-71
2022/09/13 00:20:40;;;;;;;5.40;4.50;;;;;;;-140.66;100.00;55571.53;5056342;28;20032;-72
2022/09/13 00:23:26;;;;;;;5.95;4.90;;;;;;;-140.66;100.00;55571.53;5054309;28;20025;-71
2022/09/13 00:26:14;;;;;;;6.13;4.75;;;;;;;-140.66;100.00;55571.53;5055015;28;20481;-71
2022/09/13 00:29:00;;;;;;;5.55;4.25;;;;;;;-140.66;100.00;55571.53;5054115;28;20029;-72
2022/09/13 00:31:46;;;;;;;5.57;4.80;;;;;;;-140.66;100.00;55571.53;5053955;28;20174;-72
2022/09/13 00:34:32;;;;;;;5.32;4.50;;;;;;;-140.66;100.00;55571.53;5054008;28;20021;-72
2022/09/13 00:37:17;;;;;;;8.90;5.00;;;;;;;-140.66;100.00;55571.53;5040309;28;20021;-72
2022/09/13 00:40:04;;;;;;;5.00;4.40;;;;;;;-140.66;100.00;55571.53;5055429;28;20035;-71
2022/09/13 00:42:49;;;;;;;7.07;4.85;;;;;;;-140.66;100.00;55571.53;5054380;28;20052;-72
2022/09/13 00:45:35;;;;;;;7.07;4.47;;;;;;;-140.66;100.00;55571.53;5039651;28;20058;-72
2022/09/13 00:48:23;;;;;;;5.85;4.63;;;;;;;-140.66;100.00;55571.53;5040171;28;20083;-72
2022/09/13 00:51:10;;;;;;;5.53;4.60;;;;;;;-140.66;100.00;55571.53;5054124;28;20358;-71
2022/09/13 00:53:58;;;;;;;5.93;4.80;;;;;;;-140.66;100.00;55571.53;5053973;28;20464;-71
2022/09/13 00:56:49;;;;;;;6.72;4.80;;;;;;;-140.66;100.00;55571.53;5039062;28;20132;-72
2022/09/13 00:59:46;;;;;;;5.75;4.63;;;;;;;-140.66;100.00;55571.53;5053937;28;20115;-71
2022/09/13 01:02:32;;;;;;;5.10;4.38;;;;;;;-140.66;100.00;55571.53;5053520;28;20025;-71
2022/09/13 01:05:23;;;;;;;5.63;4.90;;;;;;;-140.66;100.00;55571.53;5054038;28;20053;-71
2022/09/13 01:08:14;;;;;;;5.90;4.40;;;;;;;-140.66;100.00;55571.53;5053631;28;20029;-71
2022/09/13 01:11:02;;;;;;;6.43;4.50;;;;;;;-140.66;100.00;55571.53;5053500;28;20111;-72
2022/09/13 01:13:50;;;;;;;5.20;4.70;;;;;;;-140.66;100.00;55571.53;5039778;28;20025;-72
2022/09/13 01:16:36;;;;;;;6.00;4.68;;;;;;;-140.66;100.00;55571.53;5039607;28;20043;-71
2022/09/13 01:19:22;;;;;;;8.82;5.13;;;;;;;-140.66;100.00;55571.53;5054411;28;20104;-72
2022/09/13 01:22:53;;;;;;;5.15;4.50;;;;;;;-140.66;100.00;55571.53;5053798;28;20029;-72
2022/09/13 01:26:16;;;;;;;6.90;4.80;;;;;;;-140.66;100.00;55571.53;5053860;28;20361;-72
2022/09/13 01:29:14;;;;;;;5.60;4.78;;;;;;;-140.66;100.00;55571.53;5053825;28;20045;-72
2022/09/13 01:32:05;;;;;;;6.53;4.70;;;;;;;-140.66;100.00;55571.53;5054490;28;20024;-72
2022/09/13 01:35:14;;;;;;;9.93;4.70;;;;;;;-140.66;100.00;55571.53;5053530;28;20362;-72
2022/09/13 01:38:12;;;;;;;5.43;4.72;;;;;;;-140.66;100.00;55571.53;5053223;28;20021;-72
2022/09/13 01:41:31;;;;;;;7.22;4.90;;;;;;;-140.66;100.00;55571.53;5056785;28;20029;-72
2022/09/13 01:44:56;;;;;;;6.32;4.43;;;;;;;-140.66;100.00;55571.53;5055164;28;20465;-72
2022/09/13 01:48:00;;;;;;;9.57;5.50;;;;;;;-140.66;100.00;55571.53;5007525;28;20094;-72
2022/09/13 01:50:56;;;;;;;6.93;4.90;;;;;;;-140.66;100.00;55571.53;5058112;28;20032;-72
2022/09/13 01:54:04;;;;;;;7.88;4.97;;;;;;;-140.66;100.00;55571.53;5057097;28;20063;-71
2022/09/13 01:57:02;;;;;;;5.32;4.82;;;;;;;-140.66;100.00;55571.53;5042344;28;20062;-71
2022/09/13 01:59:51;;;;;;;5.78;4.93;;;;;;;-140.66;100.00;55571.53;5042842;28;20025;-72
2022/09/13 02:02:42;;;;;;;5.47;4.60;;;;;;;-140.66;100.00;55571.53;5056583;28;20397;-72
2022/09/13 02:05:37;;;;;;;8.18;4.80;;;;;;;-140.66;100.00;55571.53;5043060;28;20102;-72
2022/09/13 02:08:40;;;;;;;7.80;4.93;;;;;;;-140.66;100.00;55571.53;5056966;28;20032;-71
2022/09/13 02:11:25;;;;;;;7.35;4.90;;;;;;;-140.66;100.00;55571.53;5057098;28;20418;-72
2022/09/13 02:14:15;;;;;;;6.55;5.40;;;;;;;-140.66;100.00;55571.53;5056489;28;20178;-72
2022/09/13 02:17:06;;;;;;;6.15;5.38;;;;;;;-140.66;100.00;55571.53;5056991;28;20036;-71
2022/09/13 02:19:55;;;;;;;7.53;5.15;;;;;;;-140.66;100.00;55571.53;5057639;28;20098;-71
2022/09/13 02:22:47;;;;;;;5.85;5.25;;;;;;;-140.66;100.00;55571.53;5056316;28;20092;-71
2022/09/13 02:25:35;;;;;;;5.82;5.00;;;;;;;-140.66;100.00;55571.53;5055943;28;20021;-70
2022/09/13 02:28:31;;;;;;;8.73;5.63;;;;;;;-140.66;100.00;55571.53;5056015;28;20025;-71
2022/09/13 02:31:27;;;;;;;5.93;5.32;;;;;;;-140.66;100.00;55571.53;5056533;28;20508;-71
2022/09/13 02:34:19;;;;;;;7.75;6.10;;;;;;;-140.66;100.00;55571.53;5041996;28;20458;-72
2022/09/13 02:37:08;;;;;;;7.72;5.68;;;;;;;-140.66;100.00;55571.53;5056332;28;20025;-72
2022/09/13 02:40:01;;;;;;;7.05;5.63;;;;;;;-140.66;100.00;55571.53;5041836;28;20039;-72
2022/09/13 02:42:53;;;;;;;7.95;6.00;;;;;;;-140.66;100.00;55571.53;5042241;28;20094;-71
2022/09/13 02:45:48;;;;;;;7.30;5.70;;;;;;;-140.66;100.00;55571.53;5055827;28;20036;-72
2022/09/13 02:48:57;;;;;;;7.40;6.57;;;;;;;-140.66;100.00;55571.53;5055645;28;20414;-71
2022/09/13 02:51:43;;;;;;;6.93;5.63;;;;;;;-140.66;100.00;55571.53;5056636;28;20029;-71
2022/09/13 02:54:37;;;;;;;6.18;5.30;;;;;;;-140.66;100.00;55571.53;5057124;28;20025;-72
2022/09/13 02:57:35;;;;;;;6.93;5.93;;;;;;;-140.66;100.00;55571.53;5055995;28;20050;-72
2022/09/13 03:00:22;;;;;;;6.78;5.45;;;;;;;-140.66;100.00;55571.53;5055735;28;20365;-72
2022/09/13 03:03:11;;;;;;;8.32;5.68;;;;;;;-140.66;100.00;55571.53;5042305;28;20062;-71
2022/09/13 03:05:57;;;;;;;7.15;5.93;;;;;;;-140.66;100.00;55571.53;5056702;28;20547;-72
2022/09/13 03:08:42;;;;;;;8.77;6.43;;;;;;;-140.66;100.00;55571.53;5056864;28;20036;-72
2022/09/13 03:11:37;;;;;;;7.78;6.20;;;;;;;-140.66;100.00;55571.53;5056723;28;20056;-71
2022/09/13 03:14:35;;;;;;;7.93;6.50;;;;;;;-140.66;100.00;55571.53;5056041;28;20040;-71
2022/09/13 03:17:38;;;;;;;6.55;5.38;;;;;;;-140.66;100.00;55571.53;5055612;28;20326;-72
2022/09/13 03:20:29;;;;;;;7.72;6.10;;;;;;;-140.66;100.00;55571.53;5055678;28;20131;-72
2022/09/13 03:23:33;;;;;;;8.45;6.22;;;;;;;-140.66;100.00;55571.53;5041635;28;20025;-71
2022/09/13 03:26:40;;;;;;;7.32;6.45;;;;;;;-140.66;100.00;55571.53;5056450;28;20021;-71
2022/09/13 03:29:44;;;;;;;7.60;6.45;;;;;;;-140.66;100.00;55571.53;5041672;28;20044;-72
2022/09/13 03:33:05;;;;;;;13.95;6.90;;;;;;;-140.66;100.00;55571.53;5055418;28;20094;-71
2022/09/13 03:35:55;;;;;;;8.32;6.68;;;;;;;-140.66;100.00;55571.53;5054726;28;20090;-72
2022/09/13 03:38:51;;;;;;;10.23;7.35;;;;;;;-140.66;100.00;55571.53;5055318;28;20021;-71
2022/09/13 03:41:42;;;;;;;13.18;7.50;;;;;;;-140.66;100.00;55571.53;5055467;28;20026;-71
2022/09/13 03:44:30;;;;;;;11.32;6.90;;;;;;;-140.66;100.00;55571.53;5040955;28;20221;-71
2022/09/13 03:47:18;;;;;;;8.68;6.63;;;;;;;-140.66;100.00;55571.53;5040615;28;20067;-71
2022/09/13 03:50:06;;;;;;;11.68;7.13;;;;;;;-140.66;100.00;55571.53;5054655;28;20024;-71
2022/09/13 03:53:02;;;;;;;9.35;6.40;;;;;;;-140.66;100.00;55571.53;5054727;28;20090;-72
2022/09/13 03:55:47;;;;;;;9.35;6.40;;;;;;;-140.66;100.00;55571.53;5054286;28;20049;-71
2022/09/13 03:58:33;;;;;;;9.50;6.22;;;;;;;-140.66;100.00;55571.53;5056551;28;20052;-72
2022/09/13 04:01:22;;;;;;;13.45;6.30;;;;;;;-140.66;100.00;55571.53;5055713;28;20436;-71
2022/09/13 04:04:07;;;;;;;9.85;6.13;;;;;;;-140.66;100.00;55571.53;5054601;28;20029;-71
2022/09/13 04:06:55;;;;;;;8.65;5.70;;;;;;;-140.66;100.00;55571.53;5054938;28;20025;-71
2022/09/13 04:09:41;;;;;;;10.75;6.60;;;;;;;-140.66;100.00;55571.53;5054584;28;20039;-72
2022/09/13 04:12:30;;;;;;;13.25;6.70;;;;;;;-140.66;100.00;55571.53;5055015;28;20036;-71
2022/09/13 04:15:15;;;;;;;11.73;6.78;;;;;;;-140.66;100.00;55571.53;5054369;28;20453;-71
2022/09/13 04:18:01;;;;;;;9.07;5.97;;;;;;;-140.66;100.00;55571.53;5054431;28;20024;-71
2022/09/13 04:20:54;;;;;;;9.02;5.90;;;;;;;-140.66;100.00;55571.53;5040068;28;20024;-71
2022/09/13 04:23:40;;;;;;;9.18;5.65;;;;;;;-140.66;100.00;55571.53;5040625;28;20469;-72
2022/09/13 04:26:26;;;;;;;7.57;6.40;;;;;;;-140.66;100.00;55571.53;5055049;28;20028;-71
2022/09/13 04:29:11;;;;;;;8.45;6.45;;;;;;;-140.66;100.00;55571.53;5054290;28;20051;-71
2022/09/13 04:31:58;;;;;;;9.73;6.68;;;;;;;-140.66;100.00;55571.53;5040216;28;20036;-71
2022/09/13 04:34:44;;;;;;;10.25;7.15;;;;;;;-140.66;100.00;55571.53;5054075;28;20449;-71
2022/09/13 04:37:29;;;;;;;12.93;7.65;;;;;;;-140.66;100.00;55571.53;5040838;28;20404;-71
2022/09/13 04:40:15;;;;;;;12.77;6.90;;;;;;;-140.66;100.00;55571.53;5054121;28;20032;-71
2022/09/13 04:43:02;;;;;;;15.68;6.50;;;;;;;-140.66;100.00;55571.53;5055086;28;20029;-72
2022/09/13 04:45:47;;;;;;;16.77;6.55;;;;;;;-140.66;100.00;55571.53;5054283;28;20029;-71
2022/09/13 04:48:33;;;;;;;8.95;6.22;;;;;;;-140.66;100.00;55571.53;5053519;28;20030;-71
2022/09/13 04:51:20;;;;;;;9.80;6.10;;;;;;;-140.66;100.00;55571.53;5040045;28;20033;-71
2022/09/13 04:54:09;;;;;;;10.40;5.25;;;;;;;-140.66;100.00;55571.53;5053869;28;20033;-73
2022/09/13 04:56:54;;;;;;;11.77;6.00;;;;;;;-140.66;100.00;55571.53;5053367;28;20049;-72
2022/09/13 04:59:40;;;;;;;8.13;5.20;;;;;;;-140.66;100.00;55571.53;5054112;28;20021;-71
2022/09/13 05:02:26;;;;;;;6.07;5.30;;;;;;;-140.66;100.00;55571.53;5040199;28;20037;-71
2022/09/13 05:05:12;;;;;;;9.38;5.10;;;;;;;-140.66;100.00;55571.53;5054670;28;20040;-70
2022/09/13 05:07:57;;;;;;;9.02;5.22;;;;;;;-140.66;100.00;55571.53;5054311;28;20028;-71
2022/09/13 05:10:45;;;;;;;9.00;5.85;;;;;;;-140.66;100.00;55571.53;5054008;28;20104;-71
2022/09/13 05:13:32;;;;;;;18.10;7.78;;;;;;;-140.66;100.00;55571.53;5053664;28;20029;-71
2022/09/13 05:16:18;;;;;;;7.75;5.40;;;;;;;-140.66;100.00;55571.53;5056225;28;20024;-72
2022/09/13 05:19:03;;;;;;;6.72;4.80;;;;;;;-140.66;100.00;55571.53;5058802;28;20327;-71
2022/09/13 05:21:49;;;;;;;10.75;5.55;;;;;;;-140.66;100.00;55571.53;5058838;28;20029;-72
2022/09/13 05:24:34;;;;;;;5.22;4.72;;;;;;;-140.66;100.00;55571.53;5043668;28;20359;-71
2022/09/13 05:27:20;;;;;;;10.30;5.55;;;;;;;-140.66;100.00;55571.53;5058050;28;20029;-72
2022/09/13 05:30:06;;;;;;;9.27;5.43;;;;;;;-140.66;100.00;55571.53;5043245;28;20025;-71
2022/09/13 05:32:52;;;;;;;9.32;5.25;;;;;;;-140.66;100.00;55571.53;5057232;28;20029;-71
2022/09/13 05:35:39;;;;;;;8.95;5.65;;;;;;;-140.66;100.00;55571.53;5058016;28;20414;-71
2022/09/13 05:38:25;;;;;;;7.80;5.00;;;;;;;-140.66;100.00;55571.53;5057416;28;20027;-71
2022/09/13 05:41:11;;;;;;;10.85;5.65;;;;;;;-140.66;100.00;55571.53;5057392;28;20028;-71
2022/09/13 05:43:56;;;;;;;9.70;6.82;;;;;;;-140.66;100.00;55571.53;5057673;28;20025;-71
2022/09/13 05:46:46;;;;;;;8.07;6.00;;;;;;;-140.66;100.00;55571.53;5058374;28;20365;-71
2022/09/13 05:49:32;;;;;;;9.52;6.40;;;;;;;-140.66;100.00;55571.53;5042951;28;20029;-71
2022/09/13 05:52:18;;;;;;;10.00;6.72;;;;;;;-140.66;100.00;55571.53;5043006;28;20033;-72
2022/09/13 05:55:04;;;;;;;8.27;6.30;;;;;;;-140.66;100.00;55571.53;5056453;28;20591;-71
2022/09/13 05:57:49;;;;;;;7.72;5.40;;;;;;;-140.66;100.00;55571.53;5057982;28;20339;-71
2022/09/13 06:00:35;;;;;;;12.05;6.20;;;;;;;-140.66;100.00;55571.53;5043610;28;20028;-72
2022/09/13 06:03:22;;;;;;;7.30;5.85;;;;;;;-140.66;100.00;55571.53;5058551;28;20128;-71
2022/09/13 06:06:10;;;;;;;13.35;5.95;;;;;;;-140.66;100.00;55571.53;5056545;28;20041;-72
2022/09/13 06:08:56;;;;;;;8.60;6.50;;;;;;;-140.66;100.00;55571.53;5058109;28;20094;-71
2022/09/13 06:11:42;;;;;;;8.52;6.63;;;;;;;-140.66;100.00;55571.53;5042935;28;20098;-71
2022/09/13 06:14:28;;;;;;;6.53;5.82;;;;;;;-140.66;100.00;55571.53;5042569;28;20024;-72
2022/09/13 06:17:14;;;;;;;9.32;6.07;;;;;;;-140.66;100.00;55571.53;5056056;28;20083;-72
2022/09/13 06:19:59;;;;;;;9.32;6.30;;;;;;;-140.66;100.00;55571.53;5056763;28;20029;-72
2022/09/13 06:22:47;;;;;;;8.68;6.28;;;;;;;-140.66;100.00;55571.53;5056225;28;20025;-71
2022/09/13 06:25:32;;;;;;;8.77;6.20;;;;;;;-140.66;100.00;55571.53;5056301;28;20120;-71
2022/09/13 06:28:18;;;;;;;9.52;6.70;;;;;;;-140.66;100.00;55571.53;5056410;28;20484;-72
2022/09/13 06:31:09;;;;;;;9.25;7.15;;;;;;;-140.66;100.00;55571.53;5042104;28;20028;-72
2022/09/13 06:33:58;;;;;;;9.63;7.05;;;;;;;-140.66;100.00;55571.53;5056798;28;20508;-72
2022/09/13 06:36:44;;;;;;;10.70;6.90;;;;;;;-140.66;100.00;55571.53;5056679;28;20342;-72
2022/09/13 06:39:31;;;;;;;9.10;7.15;;;;;;;-140.66;100.00;55571.53;5056207;28;20397;-72
2022/09/13 06:42:17;;;;;;;11.25;7.18;;;;;;;-140.66;100.00;55571.53;5057357;28;20380;-72
2022/09/13 06:45:03;;;;;;;9.90;7.25;;;;;;;-140.66;100.00;55571.53;5055661;28;20025;-71
2022/09/13 06:47:48;;;;;;;15.65;8.30;;;;;;;-140.66;100.00;55571.53;5055623;28;20032;-72
2022/09/13 06:50:34;;;;;;;11.00;8.27;;;;;;;-140.66;100.00;55571.53;5056373;28;20029;-71
2022/09/13 06:53:20;;;;;;;9.75;7.78;;;;;;;-140.66;100.00;55571.53;5055685;28;20111;-72
2022/09/13 06:56:15;;;;;;;9.85;7.45;;;;;;;-140.66;100.00;55571.53;5041473;28;20053;-71
2022/09/13 06:59:03;;;;;;;11.55;7.88;;;;;;;-140.66;100.00;55571.53;5055858;28;20048;-72
2022/09/13 07:01:49;;;;;;;14.70;8.18;;;;;;;-140.66;100.00;55571.53;5041408;28;20021;-71
2022/09/13 07:04:35;;;;;;;12.07;8.05;;;;;;;-140.66;100.00;55571.53;5055460;28;20028;-73
2022/09/13 07:07:21;;;;;;;11.40;8.65;;;;;;;-140.66;100.00;55571.53;5055577;28;20023;-72
2022/09/13 07:10:07;;;;;;;12.23;7.97;;;;;;;-140.66;100.00;55571.53;5058616;28;20056;-71
2022/09/13 07:12:53;;;;;;;10.38;7.47;;;;;;;-140.66;100.00;55571.53;5055991;28;20029;-71
2022/09/13 07:15:38;;;;;;;10.82;7.55;;;;;;;-140.66;100.00;55571.53;5055176;28;20115;-71
2022/09/13 07:18:24;;;;;;;9.23;7.65;;;;;;;-140.66;100.00;55571.53;5056288;28;20025;-72
2022/09/13 07:21:11;;;;;;;9.95;7.00;;;;;;;-140.66;100.00;55571.53;5055820;28;20046;-71
2022/09/13 07:23:57;;;;;;;9.18;8.05;;;;;;;-140.66;100.00;55571.53;5055213;28;20033;-72
2022/09/13 07:26:43;;;;;;;11.43;7.95;;;;;;;-140.66;100.00;55571.53;5041172;28;20029;-71
2022/09/13 07:29:29;;;;;;;8.15;7.25;;;;;;;-140.66;100.00;55571.53;5055291;28;20340;-72
2022/09/13 07:32:18;;;;;;;8.35;7.32;;;;;;;-140.66;100.00;55571.53;5055566;28;20078;-72
2022/09/13 07:35:06;;;;;;;9.02;7.38;;;;;;;-140.66;100.00;55571.53;5054847;28;20052;-71
2022/09/13 07:37:52;;;;;;;10.63;7.90;;;;;;;-140.66;100.00;55571.53;5055462;28;20035;-73
2022/09/13 07:40:38;;;;;;;9.02;6.40;;;;;;;-140.66;100.00;55571.53;5054579;28;20063;-71
2022/09/13 07:43:24;;;;;;;8.50;7.22;;;;;;;-140.66;100.00;55571.53;5040561;28;20016;-72
2022/09/13 07:46:13;;;;;;;8.70;6.85;;;;;;;-140.66;100.00;55571.53;5054838;28;20097;-72
2022/09/13 07:49:00;;;;;;;14.02;6.88;;;;;;;-140.66;100.00;55571.53;5054559;28;20033;-71
2022/09/13 07:51:49;;;;;;;8.20;6.70;;;;;;;-140.66;100.00;55571.53;5040650;28;20505;-73
2022/09/13 07:54:36;;;;;;;10.93;7.60;;;;;;;-140.66;100.00;55571.53;5055223;28;20025;-72
2022/09/13 07:57:22;;;;;;;8.98;6.47;;;;;;;-140.66;100.00;55571.53;5054497;28;20037;-72
2022/09/13 08:00:09;;;;;;;10.23;7.28;;;;;;;-140.66;100.00;55571.53;5040673;28;20056;-72
2022/09/13 08:02:55;;;;;;;9.25;7.30;;;;;;;-140.66;100.00;55571.53;5054226;28;20063;-72
2022/09/13 08:05:41;;;;;;;13.88;6.65;;;;;;;-140.66;100.00;55571.53;5040417;28;20021;-72
2022/09/13 08:08:31;;;;;;;9.88;6.95;;;;;;;-140.66;100.00;55571.53;5040909;28;20473;-71
2022/09/13 08:11:20;;;;;;;8.57;6.88;;;;;;;-140.66;100.00;55571.53;5054571;28;20102;-72
2022/09/13 08:14:09;;;;;;;9.25;6.85;;;;;;;-140.66;100.00;55571.53;5054419;28;20017;-71
2022/09/13 08:16:55;;;;;;;10.50;6.90;;;;;;;-140.66;100.00;55571.53;5054233;28;20033;-71
2022/09/13 08:19:41;;;;;;;11.52;7.88;;;;;;;-140.66;100.00;55571.53;5054543;28;20029;-72
2022/09/13 08:22:28;;;;;;;10.63;6.40;;;;;;;-140.66;100.00;55571.53;5054451;28;20033;-73
2022/09/13 08:25:14;;;;;;;9.20;5.80;;;;;;;-140.66;100.00;55571.53;5054379;28;20120;-73
2022/09/13 08:28:01;;;;;;;8.95;5.55;;;;;;;-140.66;100.00;55571.53;5039986;28;20052;-71
2022/09/13 08:30:47;;;;;;;8.60;5.80;;;;;;;-140.66;100.00;55571.53;5039755;28;20036;-71
2022/09/13 08:33:34;;;;;;;8.77;5.57;;;;;;;-140.66;100.00;55571.53;5054650;28;20502;-70
2022/09/13 08:36:22;;;;;;;8.25;5.82;;;;;;;-140.66;100.00;55571.53;5053748;28;20091;-71
2022/09/13 08:39:10;;;;;;;12.25;7.35;;;;;;;-140.66;100.00;55571.53;5040092;28;20028;-72
2022/09/13 08:42:10;;;;;;;10.77;6.97;;;;;;;-140.66;100.00;55571.53;5054136;28;20033;-72
2022/09/13 08:44:58;;;;;;;6.25;4.25;;;;;;;-140.66;100.00;55571.53;5053570;28;20433;-73
2022/09/13 08:47:58;;;;;;;5.25;4.38;;;;;;;-140.66;100.00;55571.53;5053533;28;20347;-72
2022/09/13 08:50:44;;;;;;;6.18;4.55;;;;;;;-140.66;100.00;55571.53;5053655;28;20104;-72
2022/09/13 08:53:34;;;;;;;8.45;4.63;;;;;;;-140.66;100.00;55571.53;5053574;28;20041;-71
2022/09/13 08:56:26;;;;;;;5.25;3.97;;;;;;;-140.66;100.00;55571.53;5039183;28;20084;-72
2022/09/13 08:59:33;;;;;;;5.97;3.70;;;;;;;-140.66;100.00;55571.53;5055157;28;20029;-74
2022/09/13 09:02:39;;;;;;;9.95;4.40;;;;;;;-140.66;100.00;55571.53;5054793;28;20017;-72
2022/09/13 09:05:31;;;;;;;4.57;3.47;;;;;;;-140.66;100.00;55571.53;5053807;28;20051;-71
2022/09/13 09:08:27;;;;;;;4.45;3.28;;;;;;;-140.66;100.00;55571.53;5053731;28;20048;-72
2022/09/13 09:11:34;;;;;;;6.10;4.35;;;;;;;-140.66;100.00;55571.53;5054136;28;20461;-72
2022/09/13 09:14:29;;;;;;;7.55;3.67;;;;;;;-140.66;100.00;55571.53;5053232;28;20033;-72
2022/09/13 09:17:30;;;;;;;5.18;4.10;;;;;;;-140.66;100.00;55571.53;5053683;28;20476;-72
2022/09/13 09:20:46;;;;;;;7.90;3.92;;;;;;;-140.66;100.00;55571.53;5053859;28;20033;-71
2022/09/13 09:23:35;;;;;;;6.15;3.92;;;;;;;-140.66;100.00;55571.53;5053948;28;20052;-72
2022/09/13 09:26:27;;;;;;;5.85;4.00;;;;;;;-140.66;100.00;55571.53;5053687;28;20090;-71
2022/09/13 09:29:28;;;;;;;7.68;3.58;;;;;;;-140.66;100.00;55571.53;5053404;28;20033;-72
2022/09/13 09:32:38;;;;;;;7.28;3.90;;;;;;;-140.66;100.00;55571.53;5053297;28;20029;-72
2022/09/13 09:35:42;;;;;;;6.95;3.35;;;;;;;-140.66;100.00;55571.53;5039307;28;20025;-72
2022/09/13 09:38:30;;;;;;;5.75;3.13;;;;;;;-140.66;100.00;55571.53;5039477;28;20033;-72
2022/09/13 09:41:31;;;;;;;4.20;3.38;;;;;;;-140.66;100.00;55571.53;5039396;28;20174;-71
2022/09/13 09:44:26;;;;;;;4.30;2.92;;;;;;;-140.66;100.00;55571.53;5053620;28;20029;-71
2022/09/13 09:47:19;;;;;;;4.13;3.10;;;;;;;-140.66;100.00;55571.53;5052996;28;20029;-72
2022/09/13 09:50:17;;;;;;;8.30;2.55;;;;;;;-140.66;100.00;55571.53;5053645;28;20104;-71
2022/09/13 09:53:25;;;;;;;9.55;2.70;;;;;;;-140.66;100.00;55571.53;5053201;28;20053;-71
2022/09/13 09:56:30;;;;;;;4.70;2.53;;;;;;;-140.66;100.00;55571.53;5052811;28;20049;-71
2022/09/13 09:59:27;;;;;;;4.57;2.25;;;;;;;-140.66;100.00;55571.53;5053753;28;20017;-71
2022/09/13 10:02:17;;;;;;;5.28;2.13;;;;;;;-140.66;100.00;55571.53;5054711;28;20028;-71
2022/09/13 10:05:05;;;;;;;2.53;2.05;;;;;;;-140.66;100.00;55571.53;5042861;28;20017;-71
2022/09/13 10:08:01;;;;;;;2.70;2.05;;;;;;;-140.66;100.00;55571.53;5056790;28;20310;-71
2022/09/13 10:10:56;;;;;;;3.83;2.20;;;;;;;-140.66;100.00;55571.53;5056249;28;20103;-72
2022/09/13 10:14:02;;;;;;;4.80;2.28;;;;;;;-140.66;100.00;55571.53;5057011;28;20033;-72
2022/09/13 10:17:03;;;;;;;4.43;2.10;;;;;;;-140.66;100.00;55571.53;5057791;28;20083;-71
2022/09/13 10:20:02;;;;;;;4.35;2.25;;;;;;;-140.66;100.00;55571.53;5057400;28;20102;-72
2022/09/13 10:23:17;;;;;;;3.42;2.20;;;;;;;-140.66;100.00;55571.53;5056677;28;20033;-72
2022/09/13 10:26:12;;;;;;;3.13;2.38;;;;;;;-140.66;100.00;55571.53;5056457;28;20060;-72
2022/09/13 10:29:12;;;;;;;3.22;2.25;;;;;;;-140.66;100.00;55571.53;5056454;28;20041;-72
2022/09/13 10:32:02;;;;;;;2.45;2.22;;;;;;;-140.66;100.00;55571.53;5042264;28;20029;-72
2022/09/13 10:34:49;;;;;;;4.20;2.30;;;;;;;-140.66;100.00;55571.53;5055648;28;20033;-73
2022/09/13 10:37:36;;;;;;;3.33;2.15;;;;;;;-140.66;100.00;55571.53;5041308;28;20032;-71
2022/09/13 10:40:29;;;;;;;2.17;1.95;;;;;;;-140.66;100.00;55571.53;5057703;28;20090;-71
2022/09/13 10:43:18;;;;;;;3.58;2.00;;;;;;;-140.66;100.00;55571.53;5041977;28;20056;-72
2022/09/13 10:46:12;;;;;;;2.58;2.20;;;;;;;-140.66;100.00;55571.53;5057376;28;20474;-71
2022/09/13 10:48:58;;;;;;;2.53;2.10;;;;;;;-140.66;100.00;55571.53;5056199;28;20055;-72
2022/09/13 10:51:44;;;;;;;2.85;2.15;;;;;;;-140.66;100.00;55571.53;5055839;28;20029;-72
2022/09/13 10:54:30;;;;;;;4.78;2.08;;;;;;;-140.66;100.00;55571.53;5055704;28;20465;-72
2022/09/13 10:57:36;;;;;;;2.45;1.90;;;;;;;-140.66;100.00;55571.53;5055526;28;20098;-72
2022/09/13 11:00:33;;;;;;;2.75;1.70;;;;;;;-140.66;100.00;55571.53;5055845;28;20454;-72
2022/09/13 11:03:34;;;;;;;4.43;2.20;;;;;;;-140.66;100.00;55571.53;5055993;28;20119;-72
2022/09/13 11:06:26;;;;;;;2.75;1.70;;;;;;;-140.66;100.00;55571.53;5056711;28;20021;-72
2022/09/13 11:09:21;;;;;;;3.10;1.70;;;;;;;-140.66;100.00;55571.53;5055471;28;20098;-72
2022/09/13 11:12:17;;;;;;;6.88;1.70;;;;;;;-140.66;100.00;55571.53;5055847;28;20437;-72
2022/09/13 11:15:28;;;;;;;2.28;1.73;;;;;;;-140.66;100.00;55571.53;5055611;28;20468;-71
2022/09/13 11:18:59;;;;;;;2.05;1.85;;;;;;;-140.66;100.00;55571.53;5055171;28;20133;-72
2022/09/13 11:22:06;;;;;;;5.18;3.58;;;;;;;-140.66;100.00;55571.53;5056001;28;20445;-71
2022/09/13 11:24:57;;;;;;;7.60;3.45;;;;;;;-140.66;100.00;55571.53;5056221;28;20362;-71
2022/09/13 11:28:09;;;;;;;4.18;3.10;;;;;;;-140.66;100.00;55571.53;5055482;28;20082;-72
2022/09/13 11:31:03;;;;;;;2.95;1.90;;;;;;;-140.66;100.00;55571.53;5055529;28;20033;-72
2022/09/13 11:34:27;;;;;;;2.72;1.80;;;;;;;-140.66;100.00;55571.53;5056079;28;20024;-71
2022/09/13 11:37:22;;;;;;;2.85;2.17;;;;;;;-140.66;100.00;55571.53;5055471;28;20086;-72
2022/09/13 11:40:23;;;;;;;2.80;1.67;;;;;;;-140.66;100.00;55571.53;5056381;28;20017;-71
2022/09/13 11:43:46;;;;;;;2.60;1.83;;;;;;;-140.66;100.00;55571.53;5041216;28;20086;-71
2022/09/13 11:47:02;;;;;;;2.72;2.10;;;;;;;-140.66;100.00;55571.53;5040499;28;20036;-71
2022/09/13 11:50:13;;;;;;;4.10;1.90;;;;;;;-140.66;100.00;55571.53;5055964;28;20467;-73
2022/09/13 11:53:11;;;;;;;1.75;1.65;;;;;;;-140.66;100.00;55571.53;5056150;28;20037;-72
2022/09/13 11:56:05;;;;;;;4.32;1.60;;;;;;;-140.66;100.00;55571.53;5054642;28;20110;-71
2022/09/13 11:59:41;;;;;;;2.58;1.55;;;;;;;-140.66;100.00;55571.53;5057638;28;20017;-73
2022/09/13 12:02:47;;;;;;;2.20;1.83;;;;;;;-140.66;100.00;55571.53;4958816;28;20199;-70
2022/09/13 12:05:40;;;;;;;5.30;1.75;;;;;;;-140.66;100.00;55571.53;4943109;29;20112;-71
2022/09/13 12:08:35;;;;;;;4.38;2.55;;;;;;;-140.66;100.00;55571.53;5056195;28;20458;-72
2022/09/13 12:11:27;;;;;;;2.58;1.90;;;;;;;-140.66;100.00;55571.53;5054904;28;20037;-72
2022/09/13 12:14:21;;;;;;;1.92;1.73;;;;;;;-140.66;100.00;55571.53;5054602;28;20032;-71
2022/09/13 12:17:28;;;;;;;2.97;2.05;;;;;;;-140.66;100.00;55571.53;5054429;28;20029;-72
2022/09/13 12:20:26;;;;;;;2.30;1.70;;;;;;;-140.66;100.00;55571.53;5054403;28;20020;-71
2022/09/13 12:23:18;;;;;;;6.00;1.80;;;;;;;-140.66;100.00;55571.53;5054234;28;20162;-72
2022/09/13 12:26:12;;;;;;;4.72;1.80;;;;;;;-140.66;100.00;55571.53;5039572;28;20058;-71
2022/09/13 12:29:12;;;;;;;4.72;2.20;;;;;;;-140.66;100.00;55571.53;5054249;28;20037;-72
2022/09/13 12:32:01;;;;;;;4.72;2.05;;;;;;;-140.66;100.00;55571.53;5055638;28;20025;-72
2022/09/13 12:35:04;;;;;;;2.00;1.80;;;;;;;-140.66;100.00;55571.53;5054925;28;20032;-72
2022/09/13 12:37:50;;;;;;;2.17;1.75;;;;;;;-140.66;100.00;55571.53;5053910;28;20464;-72
2022/09/13 12:41:08;;;;;;;3.10;1.85;;;;;;;-140.66;100.00;55571.53;5054155;28;20033;-72
2022/09/13 12:44:16;;;;;;;3.13;1.80;;;;;;;-140.66;100.00;55571.53;5055015;28;20033;-71
2022/09/13 12:47:02;;;;;;;2.17;1.70;;;;;;;-140.66;100.00;55571.53;5057135;28;20476;-71
2022/09/13 12:50:23;;;;;;;3.92;1.90;;;;;;;-140.66;100.00;55571.53;5054102;28;20119;-72
2022/09/13 12:53:32;;;;;;;5.90;2.10;;;;;;;-140.66;100.00;55571.53;5054069;28;20357;-72
2022/09/13 12:56:40;;;;;;;2.65;1.83;;;;;;;-140.66;100.00;55571.53;5053903;28;20044;-71
2022/09/13 12:59:54;;;;;;;2.45;1.73;;;;;;;-140.66;100.00;55571.53;5053481;28;20445;-72
2022/09/13 13:02:42;;;;;;;6.25;2.67;;;;;;;-140.66;100.00;55571.53;5054715;28;20366;-72